createdAt,value
2022-08-19T00:01:28.831Z,47.90
2022-08-19T00:04:01.215Z,46.58
2022-08-19T00:06:29.939Z,48.22
2022-08-19T00:08:56.907Z,48.10
2022-08-19T00:11:28.533Z,48.75
2022-08-19T00:13:57.498Z,50.40
2022-08-19T00:16:31.602Z,49.72
2022-08-19T00:18:58.032Z,49.60
2022-08-19T00:21:25.577Z,49.03
2022-08-19T00:23:51.970Z,46.50
2022-08-19T00:26:18.588Z,46.13
2022-08-19T00:28:44.995Z,48.03
2022-08-19T00:31:11.458Z,48.13
2022-08-19T00:33:37.896Z,50.65
2022-08-19T00:36:10.343Z,49.83
2022-08-19T00:38:38.183Z,50.97
2022-08-19T00:41:10.493Z,49.30
2022-08-19T00:43:37.289Z,49.90
2022-08-19T00:46:06.838Z,49.50
2022-08-19T00:48:34.499Z,49.25
2022-08-19T00:51:01.467Z,50.03
2022-08-19T00:53:32.393Z,47.95
2022-08-19T00:56:00.677Z,48.30
2022-08-19T00:58:29.789Z,48.63
2022-08-19T01:00:56.167Z,49.92
2022-08-19T01:03:22.716Z,48.47
2022-08-19T01:05:51.153Z,47.75
2022-08-19T01:08:18.349Z,47.35
2022-08-19T01:10:47.020Z,47.15
2022-08-19T01:13:15.355Z,47.92
2022-08-19T01:15:46.134Z,47.22
2022-08-19T01:18:14.487Z,45.95
2022-08-19T01:20:41.663Z,45.30
2022-08-19T01:23:09.351Z,44.05
2022-08-19T01:25:47.444Z,45.40
2022-08-19T01:28:18.835Z,46.90
2022-08-19T01:31:00.763Z,46.47
2022-08-19T01:33:27.225Z,47.35
2022-08-19T01:35:53.639Z,46.92
2022-08-19T01:38:22.238Z,47.90
2022-08-19T01:40:48.665Z,48.05
2022-08-19T01:43:15.406Z,48.65
2022-08-19T01:45:42.154Z,49.05
2022-08-19T01:48:08.745Z,48.83
2022-08-19T01:50:35.737Z,49.28
2022-08-19T01:53:07.761Z,48.13
2022-08-19T01:55:35.866Z,47.30
2022-08-19T01:58:08.425Z,46.20
2022-08-19T02:00:35.359Z,47.67
2022-08-19T02:03:04.448Z,47.20
2022-08-19T02:05:30.844Z,47.17
2022-08-19T02:07:58.171Z,48.05
2022-08-19T02:10:24.692Z,48.15
2022-08-19T02:12:52.552Z,48.28
2022-08-19T02:15:20.586Z,47.78
2022-08-19T02:17:47.262Z,49.67
2022-08-19T02:20:16.244Z,50.53
2022-08-19T02:22:43.421Z,49.30
2022-08-19T02:25:16.012Z,48.88
2022-08-19T02:27:42.867Z,51.47
2022-08-19T02:30:14.062Z,52.72
2022-08-19T02:32:44.515Z,51.80
2022-08-19T02:35:14.666Z,49.53
2022-08-19T02:38:00.982Z,49.40
2022-08-19T02:40:28.097Z,50.08
2022-08-19T02:42:54.868Z,49.40
2022-08-19T02:45:21.499Z,51.72
2022-08-19T02:47:48.086Z,51.72
2022-08-19T02:50:15.567Z,53.00
2022-08-19T02:52:42.003Z,52.00
2022-08-19T02:55:08.775Z,54.58
2022-08-19T02:57:39.497Z,55.45
2022-08-19T03:00:08.109Z,53.42
2022-08-19T03:02:34.510Z,53.47
2022-08-19T03:05:03.414Z,51.45
2022-08-19T03:07:29.834Z,55.58
2022-08-19T03:09:59.131Z,51.78
2022-08-19T03:12:25.527Z,54.70
2022-08-19T03:14:53.036Z,54.20
2022-08-19T03:17:19.749Z,54.53
2022-08-19T03:19:46.142Z,53.78
2022-08-19T03:22:15.378Z,54.22
2022-08-19T03:24:41.730Z,54.30
2022-08-19T03:27:08.123Z,53.53
2022-08-19T03:29:43.085Z,52.03
2022-08-19T03:32:27.234Z,52.63
2022-08-19T03:34:57.962Z,56.00
2022-08-19T03:37:24.377Z,56.22
2022-08-19T03:39:52.402Z,55.60
2022-08-19T03:42:32.952Z,58.55
2022-08-19T03:45:05.507Z,57.42
2022-08-19T03:47:31.871Z,56.50
2022-08-19T03:49:58.529Z,57.58
2022-08-19T03:52:24.957Z,55.95
2022-08-19T03:54:51.347Z,57.33
2022-08-19T03:57:19.970Z,57.40
2022-08-19T03:59:46.309Z,60.30
2022-08-19T04:02:13.477Z,59.97
2022-08-19T04:04:41.319Z,63.05
2022-08-19T04:07:07.820Z,63.50
2022-08-19T04:09:34.871Z,66.55
2022-08-19T04:12:01.314Z,64.80
2022-08-19T04:14:31.184Z,68.60
2022-08-19T04:16:58.464Z,67.13
2022-08-19T04:19:24.858Z,69.93
2022-08-19T04:21:52.610Z,70.35
2022-08-19T04:24:21.436Z,68.78
2022-08-19T04:26:49.034Z,67.07
2022-08-19T04:29:19.683Z,69.00
2022-08-19T04:31:46.461Z,67.90
2022-08-19T04:34:14.309Z,70.45
2022-08-19T04:36:42.254Z,71.53
2022-08-19T04:39:10.310Z,66.68
2022-08-19T04:41:55.421Z,70.72
2022-08-19T04:44:22.151Z,69.03
2022-08-19T04:46:51.005Z,68.50
2022-08-19T04:49:19.298Z,66.07
2022-08-19T04:51:48.267Z,65.32
2022-08-19T04:54:15.649Z,66.00
2022-08-19T04:56:55.154Z,64.28
2022-08-19T04:59:21.848Z,63.70
2022-08-19T05:01:50.653Z,67.38
2022-08-19T05:04:21.439Z,67.35
2022-08-19T05:06:48.850Z,63.88
2022-08-19T05:09:15.738Z,64.47
2022-08-19T05:11:42.274Z,62.33
2022-08-19T05:14:09.430Z,62.00
2022-08-19T05:16:35.888Z,58.60
2022-08-19T05:19:20.791Z,58.67
2022-08-19T05:22:05.957Z,58.50
2022-08-19T05:24:35.021Z,57.47
2022-08-19T05:27:03.501Z,55.67
2022-08-19T05:29:36.194Z,52.20
2022-08-19T05:32:05.958Z,51.58
2022-08-19T05:34:33.917Z,53.15
2022-08-19T05:37:00.581Z,54.88
2022-08-19T05:39:27.952Z,54.40
2022-08-19T05:41:58.005Z,55.83
2022-08-19T05:44:25.706Z,54.08
2022-08-19T05:46:58.199Z,54.03
2022-08-19T05:49:26.294Z,58.80
2022-08-19T05:51:52.725Z,60.17
2022-08-19T05:54:19.356Z,61.35
2022-08-19T05:56:48.442Z,59.67
2022-08-19T05:59:15.795Z,57.13
2022-08-19T06:01:43.754Z,54.22
2022-08-19T06:04:10.215Z,53.25
2022-08-19T06:06:36.705Z,51.97
2022-08-19T06:09:04.504Z,52.28
2022-08-19T06:11:37.099Z,50.78
2022-08-19T06:14:05.777Z,50.97
2022-08-19T06:16:34.916Z,49.45
2022-08-19T06:19:01.813Z,47.38
2022-08-19T06:21:29.944Z,48.47
2022-08-19T06:23:57.305Z,48.65
2022-08-19T06:26:24.443Z,48.58
2022-08-19T06:28:51.319Z,44.80
2022-08-19T06:31:19.146Z,46.90
2022-08-19T06:33:46.028Z,45.55
2022-08-19T06:36:32.522Z,46.03
2022-08-19T06:39:00.187Z,43.20
2022-08-19T06:41:26.838Z,42.90
2022-08-19T06:43:54.188Z,43.20
2022-08-19T06:46:23.215Z,41.67
2022-08-19T06:48:49.899Z,42.90
2022-08-19T06:51:19.685Z,40.42
2022-08-19T06:56:22.837Z,42.40
2022-08-19T06:58:52.715Z,42.95
2022-08-19T07:01:19.773Z,43.45
2022-08-19T07:03:49.906Z,46.13
2022-08-19T07:06:41.199Z,48.15
2022-08-19T07:09:06.141Z,51.22
2022-08-19T07:11:34.166Z,49.70
2022-08-19T07:14:01.170Z,52.63
2022-08-19T07:16:29.297Z,48.17
2022-08-19T07:18:57.486Z,45.88
2022-08-19T07:21:29.485Z,46.15
2022-08-19T07:23:56.920Z,47.97
2022-08-19T07:26:28.012Z,49.35
2022-08-19T07:28:55.113Z,57.30
2022-08-19T07:31:23.815Z,57.80
2022-08-19T07:33:53.334Z,58.80
2022-08-19T07:36:22.388Z,57.20
2022-08-19T07:38:52.229Z,57.45
2022-08-19T07:41:22.914Z,54.97
2022-08-19T07:43:50.250Z,54.95
2022-08-19T07:46:17.575Z,55.00
2022-08-19T07:48:46.299Z,48.63
2022-08-19T07:51:14.916Z,43.97
2022-08-19T07:54:01.363Z,39.17
2022-08-19T07:56:27.909Z,39.85
2022-08-19T08:01:23.087Z,35.67
2022-08-19T08:04:08.871Z,35.30
2022-08-19T08:06:53.915Z,34.55
2022-08-19T08:09:23.285Z,35.28
2022-08-19T08:11:52.872Z,33.00
2022-08-19T08:14:34.908Z,35.13
2022-08-19T08:17:05.127Z,35.75
2022-08-19T08:22:04.116Z,37.60
2022-08-19T08:24:34.648Z,38.25
2022-08-19T08:27:01.684Z,40.00
2022-08-19T08:29:34.895Z,37.90
2022-08-19T08:32:02.509Z,38.75
2022-08-19T08:34:28.937Z,40.70
2022-08-19T08:36:55.392Z,45.38
2022-08-19T08:39:22.535Z,46.42
2022-08-19T08:42:10.424Z,49.03
2022-08-19T08:47:26.212Z,56.45
2022-08-19T08:49:54.745Z,56.38
2022-08-19T08:52:23.703Z,58.33
2022-08-19T08:54:55.397Z,59.05
2022-08-19T08:57:45.079Z,59.33
2022-08-19T09:00:16.163Z,58.40
2022-08-19T09:02:43.513Z,59.97
2022-08-19T09:05:11.009Z,60.30
2022-08-19T09:07:54.311Z,59.03
2022-08-19T09:10:34.364Z,60.80
2022-08-19T09:13:09.496Z,58.60
2022-08-19T09:15:39.638Z,60.78
2022-08-19T09:18:08.371Z,59.33
2022-08-19T09:20:43.047Z,56.25
2022-08-19T09:23:11.737Z,53.20
2022-08-19T09:25:38.600Z,51.80
2022-08-19T09:28:05.600Z,45.50
2022-08-19T09:30:35.551Z,42.65
2022-08-19T09:33:02.193Z,40.95
2022-08-19T09:35:30.425Z,36.15
2022-08-19T09:37:59.537Z,35.85
2022-08-19T09:40:27.097Z,38.00
2022-08-19T09:42:58.085Z,40.78
2022-08-19T09:45:24.846Z,41.53
2022-08-19T09:47:54.110Z,42.83
2022-08-19T09:53:12.327Z,45.50
2022-08-19T09:55:42.981Z,45.28
2022-08-19T09:58:09.818Z,44.80
2022-08-19T10:00:38.144Z,47.30
2022-08-19T10:03:04.672Z,46.05
2022-08-19T10:05:55.200Z,50.65
2022-08-19T10:08:26.814Z,52.90
2022-08-19T10:10:54.100Z,56.95
2022-08-19T10:13:24.508Z,57.53
2022-08-19T10:15:53.811Z,58.17
2022-08-19T10:18:22.892Z,61.03
2022-08-19T10:20:51.346Z,64.70
2022-08-19T10:23:19.393Z,65.75
2022-08-19T10:25:45.727Z,66.63
2022-08-19T10:28:14.711Z,67.95
2022-08-19T10:30:41.405Z,66.72
2022-08-19T10:33:11.090Z,64.03
2022-08-19T10:35:56.385Z,49.65
2022-08-19T10:40:58.638Z,41.25
2022-08-19T10:43:25.889Z,41.08
2022-08-19T10:45:59.450Z,40.58
2022-08-19T10:48:26.093Z,45.45
2022-08-19T10:51:22.863Z,46.50
2022-08-19T10:56:49.126Z,46.50
2022-08-19T10:59:16.298Z,54.67
2022-08-19T11:01:43.852Z,59.00
2022-08-19T11:04:14.476Z,58.72
2022-08-19T11:06:41.900Z,60.35
2022-08-19T11:09:08.864Z,64.75
2022-08-19T11:11:40.664Z,67.53
2022-08-19T11:14:11.889Z,71.90
2022-08-19T11:16:41.493Z,69.72
2022-08-19T11:19:11.652Z,67.00
2022-08-19T11:21:40.049Z,65.30
2022-08-19T11:24:08.179Z,57.15
2022-08-19T11:26:35.029Z,54.78
2022-08-19T11:29:02.086Z,59.10
2022-08-19T11:31:29.790Z,56.63
2022-08-19T11:34:00.659Z,57.65
2022-08-19T11:36:27.600Z,56.10
2022-08-19T11:38:54.465Z,55.33
2022-08-19T11:41:23.815Z,57.38
2022-08-19T11:43:50.966Z,58.53
2022-08-19T11:46:17.861Z,58.60
2022-08-19T11:48:44.616Z,60.63
2022-08-19T11:51:15.431Z,62.05
2022-08-19T11:53:42.308Z,63.47
2022-08-19T11:56:09.860Z,67.57
2022-08-19T11:58:37.084Z,70.63
2022-08-19T12:01:06.530Z,71.97
2022-08-19T12:03:32.961Z,73.60
2022-08-19T12:05:59.348Z,75.15
2022-08-19T12:08:29.442Z,71.50
2022-08-19T12:10:55.819Z,73.32
2022-08-19T12:13:22.183Z,69.85
2022-08-19T12:15:48.997Z,74.18
2022-08-19T12:18:15.452Z,75.18
2022-08-19T12:20:43.095Z,76.13
2022-08-19T12:23:10.486Z,73.72
2022-08-19T12:25:38.001Z,73.32
2022-08-19T12:28:05.029Z,71.97
2022-08-19T12:30:31.655Z,71.60
2022-08-19T12:32:58.263Z,69.18
2022-08-19T12:35:24.688Z,71.07
2022-08-19T12:37:55.811Z,70.22
2022-08-19T12:40:24.111Z,72.25
2022-08-19T12:42:52.927Z,69.88
2022-08-19T12:45:20.106Z,71.75
2022-08-19T12:47:47.823Z,70.75
2022-08-19T12:50:16.110Z,67.05
2022-08-19T12:52:43.301Z,65.55
2022-08-19T12:55:09.992Z,63.80
2022-08-19T12:57:36.526Z,61.40
2022-08-19T13:00:14.514Z,64.35
2022-08-19T13:02:44.789Z,64.82
2022-08-19T13:05:12.918Z,62.03
2022-08-19T13:07:42.268Z,63.25
2022-08-19T13:10:09.926Z,63.53
2022-08-19T13:12:36.626Z,65.65
2022-08-19T13:15:11.107Z,64.25
2022-08-19T13:17:38.257Z,61.38
2022-08-19T13:20:06.350Z,60.63
2022-08-19T13:22:32.828Z,60.58
2022-08-19T13:24:59.250Z,58.92
2022-08-19T13:27:25.675Z,57.33
2022-08-19T13:30:10.885Z,60.55
2022-08-19T13:32:55.979Z,61.53
2022-08-19T13:35:22.423Z,61.35
2022-08-19T13:37:48.865Z,61.17
2022-08-19T13:40:19.289Z,62.75
2022-08-19T13:42:47.352Z,59.42
2022-08-19T13:45:15.949Z,58.88
2022-08-19T13:47:45.776Z,60.22
2022-08-19T13:50:13.397Z,59.40
2022-08-19T13:52:40.651Z,60.22
2022-08-19T13:55:07.551Z,59.00
2022-08-19T13:57:34.069Z,58.75
2022-08-19T14:00:00.731Z,58.20
2022-08-19T14:02:27.551Z,59.05
2022-08-19T14:04:54.056Z,54.60
2022-08-19T14:07:23.255Z,53.75
2022-08-19T14:09:49.703Z,52.60
2022-08-19T14:12:28.177Z,53.95
2022-08-19T14:14:55.557Z,53.45
2022-08-19T14:17:22.505Z,57.67
2022-08-19T14:19:49.073Z,54.97
2022-08-19T14:22:15.549Z,55.55
2022-08-19T14:24:48.954Z,56.60
2022-08-19T14:27:15.758Z,54.92
2022-08-19T14:29:42.102Z,52.97
2022-08-19T14:32:08.558Z,55.30
2022-08-19T14:34:38.302Z,53.30
2022-08-19T14:37:04.810Z,51.75
2022-08-19T14:39:31.204Z,50.05
2022-08-19T14:41:58.265Z,49.22
2022-08-19T14:44:24.720Z,47.90
2022-08-19T14:46:52.846Z,47.60
2022-08-19T14:49:20.943Z,49.20
2022-08-19T14:51:58.490Z,44.75
2022-08-19T14:54:25.256Z,44.83
2022-08-19T14:56:53.741Z,43.03
2022-08-19T14:59:21.009Z,42.47
2022-08-19T15:01:47.466Z,40.67
2022-08-19T15:04:13.963Z,41.92
2022-08-19T15:06:43.611Z,43.42
2022-08-19T15:09:10.714Z,43.05
2022-08-19T15:11:38.087Z,44.03
2022-08-19T15:14:06.184Z,42.85
2022-08-19T15:16:33.200Z,42.35
2022-08-19T15:19:00.891Z,44.83
2022-08-19T15:21:28.042Z,44.67
2022-08-19T15:23:55.530Z,44.78
2022-08-19T15:26:22.206Z,44.78
2022-08-19T15:28:48.967Z,43.65
2022-08-19T15:31:25.293Z,42.95
2022-08-19T15:33:58.137Z,42.08
2022-08-19T15:36:26.204Z,42.75
2022-08-19T15:38:53.267Z,42.78
2022-08-19T15:41:24.475Z,43.45
2022-08-19T15:43:53.276Z,42.90
2022-08-19T15:46:21.913Z,41.80
2022-08-19T15:48:54.724Z,41.47
2022-08-19T15:51:23.954Z,41.55
2022-08-19T15:53:50.979Z,43.50
2022-08-19T15:56:17.568Z,43.03
2022-08-19T15:59:02.479Z,42.92
2022-08-19T16:01:47.938Z,42.83
2022-08-19T16:04:36.264Z,42.78
2022-08-19T16:07:03.456Z,39.20
2022-08-19T16:09:31.115Z,38.50
2022-08-19T16:12:02.558Z,36.92
2022-08-19T16:14:29.845Z,36.20
2022-08-19T16:16:56.952Z,37.22
2022-08-19T16:19:24.367Z,35.92
2022-08-19T16:21:52.523Z,35.83
2022-08-19T16:24:20.048Z,34.35
2022-08-19T16:26:46.927Z,33.42
2022-08-19T16:29:14.246Z,33.75
2022-08-19T16:31:44.356Z,33.92
2022-08-19T16:34:11.067Z,34.88
2022-08-19T16:36:41.744Z,34.65
2022-08-19T16:39:09.219Z,34.80
2022-08-19T16:41:37.115Z,33.22
2022-08-19T16:44:04.750Z,34.30
2022-08-19T16:46:31.109Z,36.38
2022-08-19T16:48:59.389Z,36.97
2022-08-19T16:51:25.862Z,35.55
2022-08-19T16:53:52.972Z,36.33
2022-08-19T16:56:20.260Z,34.95
2022-08-19T16:58:46.945Z,35.53
2022-08-19T17:01:13.729Z,36.80
2022-08-19T17:03:40.235Z,36.75
2022-08-19T17:06:18.373Z,36.33
2022-08-19T17:08:48.810Z,36.03
2022-08-19T17:11:18.492Z,36.70
2022-08-19T17:13:45.474Z,36.20
2022-08-19T17:16:14.732Z,33.22
2022-08-19T17:18:41.158Z,34.88
2022-08-19T17:21:07.485Z,34.72
2022-08-19T17:23:42.550Z,32.72
2022-08-19T17:26:09.835Z,29.90
2022-08-19T17:28:45.323Z,29.90
2022-08-19T17:31:12.029Z,30.05
2022-08-19T17:33:41.029Z,29.10
2022-08-19T17:36:08.484Z,29.23
2022-08-19T17:38:35.886Z,27.65
2022-08-19T17:41:05.941Z,26.02
2022-08-19T17:43:40.014Z,24.63
2022-08-19T17:46:11.215Z,23.80
2022-08-19T17:48:40.452Z,23.52
2022-08-19T17:51:14.590Z,23.38
2022-08-19T17:53:41.376Z,22.90
2022-08-19T17:56:07.895Z,23.00
2022-08-19T17:58:34.655Z,21.30
2022-08-19T18:01:02.787Z,21.85
2022-08-19T18:03:30.252Z,21.25
2022-08-19T18:05:58.565Z,19.73
2022-08-19T18:08:25.603Z,21.10
2022-08-19T18:10:52.049Z,19.90
2022-08-19T18:13:18.828Z,19.13
2022-08-19T18:15:45.351Z,19.40
2022-08-19T18:18:15.654Z,18.10
2022-08-19T18:20:42.591Z,17.95
2022-08-19T18:23:45.532Z,18.40
2022-08-19T18:25:55.785Z,18.05
2022-08-19T18:28:23.786Z,17.92
2022-08-19T18:30:50.125Z,18.23
2022-08-19T18:33:16.670Z,17.10
2022-08-19T18:35:47.400Z,17.27
2022-08-19T18:38:33.397Z,18.10
2022-08-19T18:41:18.466Z,17.90
2022-08-19T18:44:03.422Z,17.20
2022-08-19T18:46:48.308Z,16.90
2022-08-19T18:49:23.191Z,16.05
2022-08-19T18:51:51.284Z,16.37
2022-08-19T18:54:18.823Z,16.85
2022-08-19T18:56:45.461Z,16.92
2022-08-19T18:59:14.781Z,17.10
2022-08-19T19:01:52.201Z,16.63
2022-08-19T19:04:20.709Z,17.02
2022-08-19T19:06:47.471Z,18.10
2022-08-19T19:09:17.451Z,19.30
2022-08-19T19:11:44.946Z,18.25
2022-08-19T19:14:23.198Z,17.77
2022-08-19T19:17:00.244Z,18.13
2022-08-19T19:19:26.695Z,17.83
2022-08-19T19:21:53.167Z,19.65
2022-08-19T19:24:21.231Z,19.02
2022-08-19T19:26:48.921Z,19.38
2022-08-19T19:29:16.902Z,21.80
2022-08-19T19:31:44.191Z,22.38
2022-08-19T19:34:15.468Z,20.48
2022-08-19T19:36:57.644Z,21.63
2022-08-19T19:39:45.014Z,23.77
2022-08-19T19:42:12.580Z,25.80
2022-08-19T19:44:40.910Z,22.10
2022-08-19T19:47:13.709Z,20.08
2022-08-19T19:49:57.906Z,20.15
2022-08-19T19:52:26.822Z,19.25
2022-08-19T19:54:56.999Z,19.42
2022-08-19T19:57:23.804Z,19.83
2022-08-19T19:59:51.421Z,19.80
2022-08-19T20:02:18.240Z,19.33
2022-08-19T20:04:45.078Z,20.08
2022-08-19T20:07:14.485Z,19.90
2022-08-19T20:09:58.768Z,20.02
2022-08-19T20:12:26.378Z,20.02
2022-08-19T20:14:52.795Z,19.63
2022-08-19T20:17:20.496Z,21.27
2022-08-19T20:19:47.791Z,19.85
2022-08-19T20:22:14.484Z,21.65
2022-08-19T20:24:42.544Z,21.27
2022-08-19T20:27:10.644Z,23.25
2022-08-19T20:29:39.208Z,22.77
2022-08-19T20:32:06.798Z,22.88
2022-08-19T20:34:33.803Z,23.90
2022-08-19T20:37:00.217Z,23.10
2022-08-19T20:39:26.600Z,24.35
2022-08-19T20:41:52.993Z,24.52
2022-08-19T20:44:19.351Z,24.27
2022-08-19T20:46:54.691Z,23.95
2022-08-19T20:49:22.805Z,26.00
2022-08-19T20:51:54.642Z,26.48
2022-08-19T20:54:21.411Z,27.55
2022-08-19T20:56:47.901Z,27.75
2022-08-19T20:59:14.458Z,27.70
2022-08-19T21:01:41.065Z,27.65
2022-08-19T21:04:07.472Z,26.30
2022-08-19T21:06:34.052Z,26.63
2022-08-19T21:09:00.470Z,24.70
2022-08-19T21:11:27.037Z,25.40
2022-08-19T21:13:53.370Z,25.77
2022-08-19T21:16:19.762Z,24.10
2022-08-19T21:18:46.111Z,25.05
2022-08-19T21:21:12.543Z,24.92
2022-08-19T21:23:38.912Z,24.83
2022-08-19T21:26:05.314Z,24.67
2022-08-19T21:28:35.908Z,24.52
2022-08-19T21:31:03.647Z,24.27
2022-08-19T21:33:35.348Z,24.23
2022-08-19T21:36:04.117Z,24.98
2022-08-19T21:38:31.004Z,24.35
2022-08-19T21:40:57.595Z,25.77
2022-08-19T21:43:24.190Z,24.95
2022-08-19T21:45:51.050Z,24.75
2022-08-19T21:48:17.864Z,24.85
2022-08-19T21:50:45.982Z,25.05
2022-08-19T21:53:17.663Z,23.23
2022-08-19T21:55:46.111Z,23.10
2022-08-19T21:58:19.542Z,22.23
2022-08-19T22:00:55.824Z,21.40
2022-08-19T22:03:22.304Z,21.75
2022-08-19T22:05:48.693Z,22.08
2022-08-19T22:08:15.262Z,20.10
2022-08-19T22:10:41.735Z,19.98
2022-08-19T22:13:09.466Z,18.65
2022-08-19T22:15:35.873Z,19.00
2022-08-19T22:18:02.297Z,17.90
2022-08-19T22:20:30.169Z,18.48
2022-08-19T22:22:58.002Z,17.08
2022-08-19T22:25:30.089Z,17.40
2022-08-19T22:28:00.544Z,17.10
2022-08-19T22:30:28.085Z,16.98
2022-08-19T22:33:01.366Z,17.13
2022-08-19T22:35:31.349Z,17.17
2022-08-19T22:37:59.032Z,17.05
2022-08-19T22:40:25.813Z,17.85
2022-08-19T22:43:03.366Z,18.52
2022-08-19T22:45:30.528Z,17.38
2022-08-19T22:47:57.321Z,17.40
2022-08-19T22:50:24.038Z,17.65
2022-08-19T22:52:57.736Z,18.50
2022-08-19T22:55:25.259Z,18.20
2022-08-19T22:57:53.364Z,18.05
2022-08-19T23:00:21.473Z,18.23
2022-08-19T23:02:52.293Z,17.65
2022-08-19T23:05:21.981Z,18.60
2022-08-19T23:07:52.412Z,17.10
2022-08-19T23:10:26.728Z,17.08
2022-08-19T23:12:54.974Z,16.85
2022-08-19T23:15:24.208Z,16.60
2022-08-19T23:17:50.653Z,17.05
2022-08-19T23:20:17.242Z,17.00
2022-08-19T23:22:45.332Z,15.27
2022-08-19T23:25:14.868Z,15.63
2022-08-19T23:28:00.186Z,16.02
2022-08-19T23:30:26.791Z,15.07
2022-08-19T23:32:53.987Z,15.73
2022-08-19T23:35:20.412Z,15.35
2022-08-19T23:37:48.020Z,15.27
2022-08-19T23:40:16.393Z,15.75
2022-08-19T23:42:46.514Z,14.90
2022-08-19T23:45:13.347Z,16.88
2022-08-19T23:47:41.281Z,16.77
2022-08-19T23:50:08.487Z,17.55
2022-08-19T23:52:42.055Z,18.05
2022-08-19T23:55:08.645Z,18.77
2022-08-19T23:57:35.071Z,20.27
